createdAt,value
2018-07-27T00:00:21.492Z,94231.33
2018-07-27T00:02:50.591Z,94225.02
2018-07-27T00:05:19.670Z,94225.20
2018-07-27T00:07:48.793Z,94229.66
2018-07-27T00:10:18.991Z,94233.38
2018-07-27T00:12:48.607Z,94224.92
2018-07-27T00:15:17.658Z,94231.19
2018-07-27T00:17:46.747Z,94231.48
2018-07-27T00:20:15.769Z,94230.19
2018-07-27T00:22:44.798Z,94226.94
2018-07-27T00:25:14.597Z,94219.84
2018-07-27T00:27:43.674Z,94222.71
2018-07-27T00:30:12.840Z,94224.02
2018-07-27T00:32:41.868Z,94219.34
2018-07-27T00:35:10.978Z,94223.93
2018-07-27T00:37:40.137Z,94220.17
2018-07-27T00:40:09.560Z,94214.27
2018-07-27T00:42:38.735Z,94214.95
2018-07-27T00:45:07.838Z,94221.28
2018-07-27T00:47:37.030Z,94223.34
2018-07-27T00:50:06.148Z,94223.86
2018-07-27T00:52:35.327Z,94227.79
2018-07-27T00:55:04.345Z,94221.91
2018-07-27T00:57:33.388Z,94224.25
2018-07-27T01:00:02.482Z,94224.08
2018-07-27T01:02:31.488Z,94224.69
2018-07-27T01:05:00.596Z,94221.55
2018-07-27T01:07:29.816Z,94220.76
2018-07-27T01:09:58.836Z,94217.70
2018-07-27T01:12:27.972Z,94212.73
2018-07-27T01:14:57.033Z,94213.65
2018-07-27T01:17:26.312Z,94211.20
2018-07-27T01:19:55.384Z,94210.88
2018-07-27T01:22:24.444Z,94204.60
2018-07-27T01:24:53.496Z,94211.20
2018-07-27T01:27:22.939Z,94206.76
2018-07-27T01:29:51.970Z,94206.78
2018-07-27T01:32:21.141Z,94205.99
2018-07-27T01:34:50.180Z,94208.17
2018-07-27T01:37:19.269Z,94207.11
2018-07-27T01:39:48.315Z,94209.11
2018-07-27T01:42:17.768Z,94208.86
2018-07-27T01:44:46.866Z,94209.59
2018-07-27T01:47:15.907Z,94200.70
2018-07-27T01:49:45.082Z,94206.09
2018-07-27T01:52:14.109Z,94200.09
2018-07-27T01:54:43.231Z,94204.48
2018-07-27T01:57:12.208Z,94203.48
2018-07-27T01:59:41.330Z,94196.94
2018-07-27T02:02:10.423Z,94199.77
2018-07-27T02:04:39.585Z,94198.03
2018-07-27T02:07:08.779Z,94196.52
2018-07-27T02:09:38.204Z,94197.34
2018-07-27T02:12:07.840Z,94193.14
2018-07-27T02:14:37.221Z,94192.28
2018-07-27T02:17:06.594Z,94188.14
2018-07-27T02:19:35.681Z,94187.88
2018-07-27T02:22:04.720Z,94188.39
2018-07-27T02:24:33.881Z,94189.39
2018-07-27T02:27:03.095Z,94181.48
2018-07-27T02:29:32.220Z,94178.95
2018-07-27T02:32:02.385Z,94188.55
2018-07-27T02:34:31.812Z,94187.63
2018-07-27T02:37:00.983Z,94193.34
2018-07-27T02:39:30.050Z,94185.83
2018-07-27T02:41:59.099Z,94190.69
2018-07-27T02:44:28.231Z,94193.23
2018-07-27T02:46:57.289Z,94196.47
2018-07-27T02:49:26.363Z,94195.19
2018-07-27T02:51:55.775Z,94192.95
2018-07-27T02:54:24.847Z,94202.94
2018-07-27T02:56:53.963Z,94198.88
2018-07-27T02:59:22.986Z,94203.59
2018-07-27T03:01:52.304Z,94208.83
2018-07-27T03:04:21.377Z,94206.38
2018-07-27T03:06:50.444Z,94202.77
2018-07-27T03:09:19.634Z,94206.72
2018-07-27T03:11:48.709Z,94207.72
2018-07-27T03:14:17.896Z,94211.57
2018-07-27T03:16:46.993Z,94210.06
2018-07-27T03:19:16.106Z,94208.48
2018-07-27T03:21:45.220Z,94216.44
2018-07-27T03:24:14.242Z,94216.59
2018-07-27T03:26:43.254Z,94213.32
2018-07-27T03:29:12.349Z,94206.27
2018-07-27T03:31:41.885Z,94212.91
2018-07-27T03:34:10.923Z,94219.81
2018-07-27T03:36:39.972Z,94221.66
2018-07-27T03:39:10.718Z,94218.55
2018-07-27T03:41:39.739Z,94219.38
2018-07-27T03:44:08.809Z,94217.45
2018-07-27T03:46:37.842Z,94217.33
2018-07-27T03:49:06.840Z,94219.16
2018-07-27T03:51:35.964Z,94219.95
2018-07-27T03:54:05.194Z,94220.14
2018-07-27T03:56:34.285Z,94219.19
2018-07-27T03:59:03.376Z,94219.50
2018-07-27T04:01:32.567Z,94222.32
2018-07-27T04:04:01.878Z,94227.94
2018-07-27T04:06:30.946Z,94227.55
2018-07-27T04:08:59.925Z,94225.38
2018-07-27T04:11:29.180Z,94221.93
2018-07-27T04:13:58.260Z,94222.84
2018-07-27T04:16:27.356Z,94223.79
2018-07-27T04:18:56.531Z,94218.36
2018-07-27T04:21:25.592Z,94218.52
2018-07-27T04:23:54.654Z,94217.89
2018-07-27T04:26:24.005Z,94210.34
2018-07-27T04:28:52.957Z,94212.71
2018-07-27T04:31:22.979Z,94215.95
2018-07-27T04:33:52.055Z,94222.58
2018-07-27T04:36:21.107Z,94222.17
2018-07-27T04:38:50.209Z,94227.76
2018-07-27T04:41:19.188Z,94232.59
2018-07-27T04:43:48.316Z,94232.17
2018-07-27T04:46:17.371Z,94231.23
2018-07-27T04:48:46.524Z,94233.83
2018-07-27T04:51:15.567Z,94231.63
2018-07-27T04:53:44.698Z,94233.06
2018-07-27T04:56:15.056Z,94235.47
2018-07-27T04:58:44.870Z,94229.23
2018-07-27T05:01:14.276Z,94225.31
2018-07-27T05:03:43.759Z,94230.13
2018-07-27T05:06:13.092Z,94229.20
2018-07-27T05:08:47.628Z,94227.52
2018-07-27T05:11:17.503Z,94224.80
2018-07-27T05:13:49.569Z,94225.72
2018-07-27T05:16:18.999Z,94215.89
2018-07-27T05:18:48.358Z,94207.50
2018-07-27T05:21:18.227Z,94207.39
2018-07-27T05:23:47.747Z,94207.18
2018-07-27T05:26:17.281Z,94213.63
2018-07-27T05:28:46.648Z,94213.02
2018-07-27T05:31:16.033Z,94213.12
2018-07-27T05:33:46.259Z,94210.70
2018-07-27T05:36:15.872Z,94210.70
2018-07-27T05:38:44.987Z,94210.01
2018-07-27T05:41:14.055Z,94215.32
2018-07-27T05:43:43.412Z,94206.55
2018-07-27T05:46:13.118Z,94211.34
2018-07-27T05:48:42.588Z,94205.80
2018-07-27T05:51:13.085Z,94212.60
2018-07-27T05:53:43.595Z,94209.14
2018-07-27T05:56:13.134Z,94210.20
2018-07-27T05:58:42.510Z,94216.53
2018-07-27T06:01:11.803Z,94211.20
2018-07-27T06:03:41.429Z,94217.53
2018-07-27T06:06:10.954Z,94220.05
2018-07-27T06:08:40.432Z,94220.55
2018-07-27T06:11:09.969Z,94214.14
2018-07-27T06:13:39.229Z,94218.38
2018-07-27T06:16:09.004Z,94210.16
2018-07-27T06:18:39.292Z,94210.29
2018-07-27T06:21:08.777Z,94206.35
2018-07-27T06:23:38.220Z,94202.34
2018-07-27T06:26:08.067Z,94209.64
2018-07-27T06:28:37.709Z,94204.68
2018-07-27T06:31:07.004Z,94204.22
2018-07-27T06:33:36.208Z,94199.20
2018-07-27T06:36:05.988Z,94202.38
2018-07-27T06:38:35.066Z,94200.58
2018-07-27T06:41:04.274Z,94200.02
2018-07-27T06:43:33.408Z,94192.16
2018-07-27T06:46:02.621Z,94183.76
2018-07-27T06:48:32.803Z,94183.48
2018-07-27T06:51:02.829Z,94177.39
2018-07-27T06:53:32.288Z,94176.64
2018-07-27T06:56:01.780Z,94179.54
2018-07-27T06:58:31.127Z,94178.78
2018-07-27T07:01:00.532Z,94171.94
2018-07-27T07:03:30.433Z,94169.31
2018-07-27T07:06:00.784Z,94168.56
2018-07-27T07:08:30.275Z,94171.83
2018-07-27T07:10:59.783Z,94173.98
2018-07-27T07:13:29.266Z,94165.55
2018-07-27T07:15:58.716Z,94167.00
2018-07-27T07:18:28.771Z,94162.33
2018-07-27T07:20:58.340Z,94161.61
2018-07-27T07:23:27.743Z,94155.63
2018-07-27T07:25:57.530Z,94162.14
2018-07-27T07:28:26.582Z,94160.52
2018-07-27T07:30:56.488Z,94154.37
2018-07-27T07:33:26.709Z,94157.57
2018-07-27T07:35:56.186Z,94158.30
2018-07-27T07:38:26.747Z,94160.27
2018-07-27T07:40:56.102Z,94157.45
2018-07-27T07:43:25.520Z,94146.05
2018-07-27T07:45:58.817Z,94151.89
2018-07-27T07:48:28.606Z,94139.48
2018-07-27T07:50:58.580Z,94142.01
2018-07-27T07:53:27.932Z,94142.11
2018-07-27T07:55:57.430Z,94134.73
2018-07-27T07:58:26.959Z,94128.38
2018-07-27T08:00:56.963Z,94129.67
2018-07-27T08:03:26.504Z,94135.38
2018-07-27T08:05:57.086Z,94135.23
2018-07-27T08:08:26.772Z,94135.88
2018-07-27T08:10:56.735Z,94131.23
2018-07-27T08:13:26.149Z,94127.66
2018-07-27T08:15:56.498Z,94135.80
2018-07-27T08:18:25.984Z,94122.36
2018-07-27T08:20:55.835Z,94122.44
2018-07-27T08:23:24.960Z,94118.19
2018-07-27T08:27:01.696Z,94116.53
2018-07-27T08:29:33.265Z,94116.24
2018-07-27T08:32:02.796Z,94109.75
2018-07-27T08:34:38.325Z,94094.89
2018-07-27T08:37:07.809Z,94099.50
2018-07-27T08:39:38.596Z,94093.81
2018-07-27T08:42:07.734Z,94091.38
2018-07-27T08:44:39.064Z,94087.53
2018-07-27T08:47:08.267Z,94082.36
2018-07-27T08:49:37.685Z,94086.25
2018-07-27T08:52:06.775Z,94070.47
2018-07-27T08:54:35.869Z,94073.67
2018-07-27T08:57:05.070Z,94079.06
2018-07-27T08:59:34.469Z,94067.26
2018-07-27T09:02:03.984Z,94068.59
2018-07-27T09:04:34.583Z,94062.33
2018-07-27T09:07:03.791Z,94067.66
2018-07-27T09:09:33.317Z,94058.25
2018-07-27T09:12:03.166Z,94058.53
2018-07-27T09:14:32.845Z,94053.60
2018-07-27T09:17:02.405Z,94045.48
2018-07-27T09:19:31.650Z,94044.50
2018-07-27T09:22:02.047Z,94048.09
2018-07-27T09:24:31.600Z,94048.89
2018-07-27T09:27:01.391Z,94042.57
2018-07-27T09:29:30.819Z,94038.66
2018-07-27T09:32:00.277Z,94037.38
2018-07-27T09:34:29.761Z,94038.60
2018-07-27T09:36:59.363Z,94031.76
2018-07-27T09:39:29.280Z,94028.40
2018-07-27T09:41:58.601Z,94027.97
2018-07-27T09:44:27.993Z,94029.02
2018-07-27T09:46:58.170Z,94030.58
2018-07-27T09:49:27.245Z,94028.88
2018-07-27T09:51:56.311Z,94027.25
2018-07-27T09:54:25.734Z,94023.66
2018-07-27T09:56:55.302Z,94014.72
2018-07-27T09:59:25.260Z,94014.16
2018-07-27T10:01:54.866Z,94015.80
2018-07-27T10:04:24.255Z,94016.50
2018-07-27T10:06:53.692Z,94016.41
2018-07-27T10:09:23.244Z,94002.64
2018-07-27T10:11:52.653Z,94007.42
2018-07-27T10:14:22.930Z,94007.38
2018-07-27T10:16:52.394Z,93998.71
2018-07-27T10:19:22.564Z,93995.08
2018-07-27T10:21:52.109Z,93997.48
2018-07-27T10:24:21.432Z,93992.87
2018-07-27T10:26:50.773Z,93987.06
2018-07-27T10:29:19.898Z,93979.53
2018-07-27T10:31:49.836Z,93973.05
2018-07-27T10:34:19.289Z,93971.73
2018-07-27T10:36:48.775Z,93968.72
2018-07-27T10:39:18.052Z,93971.84
2018-07-27T10:41:47.152Z,93962.68
2018-07-27T10:44:16.375Z,93954.22
2018-07-27T10:46:46.120Z,93948.82
2018-07-27T10:49:15.477Z,93946.14
2018-07-27T10:51:44.863Z,93938.55
2018-07-27T10:54:13.948Z,93934.70
2018-07-27T10:56:44.693Z,93937.00
2018-07-27T10:59:13.798Z,93929.66
2018-07-27T11:01:42.903Z,93923.55
2018-07-27T11:04:12.262Z,93920.80
2018-07-27T11:06:42.186Z,93918.51
2018-07-27T11:09:11.687Z,93917.41
2018-07-27T11:11:41.044Z,93912.38
2018-07-27T11:14:11.005Z,93906.72
2018-07-27T11:16:40.097Z,93908.91
2018-07-27T11:19:09.361Z,93905.05
2018-07-27T11:21:38.479Z,93905.27
2018-07-27T11:24:07.674Z,93905.06
2018-07-27T11:26:36.758Z,93899.59
2018-07-27T11:29:05.812Z,93900.73
2018-07-27T11:31:34.918Z,93894.91
2018-07-27T11:34:04.101Z,93893.59
2018-07-27T11:36:33.269Z,93889.33
2018-07-27T11:39:02.389Z,93891.01
2018-07-27T11:41:31.570Z,93893.13
2018-07-27T11:44:00.753Z,93885.95
2018-07-27T11:46:29.899Z,93880.65
2018-07-27T11:48:58.990Z,93879.27
2018-07-27T11:51:28.315Z,93872.19
2018-07-27T11:53:57.803Z,93868.89
2018-07-27T11:56:26.933Z,93866.00
2018-07-27T11:58:56.222Z,93869.69
2018-07-27T12:01:25.293Z,93865.34
2018-07-27T12:03:54.497Z,93861.55
2018-07-27T12:06:23.668Z,93859.83
2018-07-27T12:08:52.763Z,93864.55
2018-07-27T12:11:21.881Z,93851.85
2018-07-27T12:13:51.967Z,93848.51
2018-07-27T12:16:21.542Z,93844.41
2018-07-27T12:18:50.960Z,93840.38
2018-07-27T12:21:22.180Z,93836.16
2018-07-27T12:23:51.592Z,93826.66
2018-07-27T12:26:21.061Z,93830.03
2018-07-27T12:28:50.711Z,93827.22
2018-07-27T12:31:20.169Z,93831.23
2018-07-27T12:33:49.551Z,93835.80
2018-07-27T12:36:18.787Z,93831.30
2018-07-27T12:38:48.249Z,93829.48
2018-07-27T12:41:17.346Z,93833.31
2018-07-27T12:43:46.516Z,93826.75
2018-07-27T12:46:16.233Z,93823.44
2018-07-27T12:48:45.548Z,93816.78
2018-07-27T12:51:14.816Z,93825.89
2018-07-27T12:53:44.977Z,93819.87
2018-07-27T12:56:14.275Z,93813.95
2018-07-27T12:58:43.402Z,93809.60
2018-07-27T13:01:12.627Z,93812.75
2018-07-27T13:03:41.744Z,93807.53
2018-07-27T13:06:10.953Z,93807.66
2018-07-27T13:08:40.056Z,93802.56
2018-07-27T13:11:09.203Z,93796.80
2018-07-27T13:13:38.379Z,93793.22
2018-07-27T13:16:07.670Z,93790.58
2018-07-27T13:18:36.903Z,93783.92
2018-07-27T13:21:06.254Z,93782.62
2018-07-27T13:23:35.694Z,93781.11
2018-07-27T13:26:28.781Z,93779.90
2018-07-27T13:28:44.061Z,93779.44
2018-07-27T13:31:13.838Z,93772.56
2018-07-27T13:35:01.066Z,93778.20
2018-07-27T13:37:32.512Z,93783.39
2018-07-27T13:40:03.199Z,93782.87
2018-07-27T13:42:34.442Z,93776.66
2018-07-27T13:45:05.830Z,93776.31
2018-07-27T13:47:36.089Z,93775.98
2018-07-27T13:50:06.656Z,93787.09
2018-07-27T13:52:37.015Z,93782.75
2018-07-27T13:55:06.679Z,93783.84
2018-07-27T13:57:36.943Z,93781.75
2018-07-27T14:00:07.000Z,93801.85
2018-07-27T14:02:36.128Z,93822.15
2018-07-27T14:05:05.590Z,93828.03
2018-07-27T14:07:35.493Z,93832.14
2018-07-27T14:10:05.709Z,93833.39
2018-07-27T14:12:36.112Z,93830.80
2018-07-27T14:15:05.761Z,93832.11
2018-07-27T14:17:35.537Z,93849.72
2018-07-27T14:20:05.911Z,93856.13
2018-07-27T14:22:36.242Z,93851.45
2018-07-27T14:25:05.702Z,93843.86
2018-07-27T14:27:36.465Z,93841.03
2018-07-27T14:30:06.242Z,93837.41
2018-07-27T14:32:35.584Z,93839.61
2018-07-27T14:35:05.585Z,93845.81
2018-07-27T14:37:35.795Z,93849.95
2018-07-27T14:40:06.773Z,93856.23
2018-07-27T14:42:36.757Z,93861.12
2018-07-27T14:45:05.905Z,93862.61
2018-07-27T14:47:34.965Z,93869.62
2018-07-27T14:50:04.146Z,93868.50
2018-07-27T14:52:33.231Z,93875.67
2018-07-27T14:55:02.390Z,93881.16
2018-07-27T14:57:31.550Z,93877.96
2018-07-27T15:00:01.260Z,93882.20
2018-07-27T15:02:30.311Z,93890.80
2018-07-27T15:04:59.594Z,93891.27
2018-07-27T15:07:29.025Z,93899.16
2018-07-27T15:09:58.441Z,93898.14
2018-07-27T15:12:27.885Z,93895.69
2018-07-27T15:14:58.344Z,93899.95
2018-07-27T15:17:27.940Z,93911.99
2018-07-27T15:19:57.403Z,93907.86
2018-07-27T15:22:26.834Z,93911.86
2018-07-27T15:24:56.075Z,93924.89
2018-07-27T15:27:25.253Z,93927.69
2018-07-27T15:29:54.699Z,93932.02
2018-07-27T15:32:26.043Z,93934.47
2018-07-27T15:34:58.413Z,93942.88
2018-07-27T15:37:29.256Z,93947.62
2018-07-27T15:39:58.686Z,93945.41
2018-07-27T15:42:28.491Z,93952.72
2018-07-27T15:44:58.390Z,93956.50
2018-07-27T15:47:27.893Z,93950.05
2018-07-27T15:49:57.982Z,93954.66
2018-07-27T15:52:27.135Z,93950.00
2018-07-27T15:54:56.399Z,93949.87
2018-07-27T15:57:25.505Z,93949.03
2018-07-27T15:59:54.544Z,93936.38
2018-07-27T16:02:23.822Z,93932.30
2018-07-27T16:04:53.054Z,93937.90
2018-07-27T16:07:22.173Z,93932.02
2018-07-27T16:09:51.179Z,93932.84
2018-07-27T16:12:20.319Z,93934.31
2018-07-27T16:14:49.717Z,93929.90
2018-07-27T16:17:19.037Z,93920.15
2018-07-27T16:19:48.131Z,93917.94
2018-07-27T16:22:17.256Z,93915.64
2018-07-27T16:24:46.512Z,93913.65
2018-07-27T16:27:15.688Z,93911.80
2018-07-27T16:29:44.843Z,93918.25
2018-07-27T16:32:13.965Z,93913.39
2018-07-27T16:34:43.201Z,93915.17
2018-07-27T16:37:12.284Z,93912.08
2018-07-27T16:39:42.198Z,93897.28
2018-07-27T16:42:11.382Z,93905.84
2018-07-27T16:44:40.492Z,93908.15
2018-07-27T16:47:09.757Z,93907.36
2018-07-27T16:49:38.792Z,93906.70
2018-07-27T16:52:07.890Z,93906.83
2018-07-27T16:54:37.140Z,93901.33
2018-07-27T16:57:07.645Z,93909.60
2018-07-27T16:59:36.767Z,93908.19
2018-07-27T17:02:05.784Z,93911.45
2018-07-27T17:04:34.990Z,93907.11
2018-07-27T17:07:04.471Z,93910.25
2018-07-27T17:09:33.665Z,93907.65
2018-07-27T17:12:04.499Z,93905.88
2018-07-27T17:14:34.836Z,93904.52
2018-07-27T17:17:04.397Z,93902.56
2018-07-27T17:19:34.036Z,93900.56
2018-07-27T17:22:04.180Z,93906.67
2018-07-27T17:24:33.228Z,93910.02
2018-07-27T17:27:02.315Z,93915.88
2018-07-27T17:29:32.022Z,93914.09
2018-07-27T17:32:03.327Z,93918.31
2018-07-27T17:34:32.465Z,93909.75
2018-07-27T17:37:01.695Z,93916.53
2018-07-27T17:39:30.859Z,93920.81
2018-07-27T17:42:02.465Z,93917.06
2018-07-27T17:44:31.594Z,93926.27
2018-07-27T17:47:01.596Z,93930.20
2018-07-27T17:49:30.668Z,93926.52
2018-07-27T17:52:04.220Z,93922.38
2018-07-27T17:54:33.369Z,93915.28
2018-07-27T17:57:02.601Z,93921.41
2018-07-27T17:59:31.753Z,93927.30
2018-07-27T18:02:02.043Z,93939.96
2018-07-27T18:04:31.837Z,93944.20
2018-07-27T18:07:01.007Z,93949.84
2018-07-27T18:09:30.251Z,93948.73
2018-07-27T18:11:59.956Z,93948.08
2018-07-27T18:14:29.176Z,93944.46
2018-07-27T18:16:58.413Z,93944.02
2018-07-27T18:19:27.552Z,93940.03
2018-07-27T18:21:56.661Z,93941.78
2018-07-27T18:24:25.771Z,93943.38
2018-07-27T18:26:55.150Z,93944.14
2018-07-27T18:29:24.323Z,93946.94
2018-07-27T18:31:53.605Z,93949.76
2018-07-27T18:34:22.900Z,93948.44
2018-07-27T18:36:52.051Z,93943.16
2018-07-27T18:39:21.208Z,93945.38
2018-07-27T18:41:51.031Z,93950.44
2018-07-27T18:44:21.735Z,93957.81
2018-07-27T18:46:51.139Z,93955.13
2018-07-27T18:49:20.345Z,93953.89
2018-07-27T18:51:49.475Z,93954.69
2018-07-27T18:54:18.666Z,93964.59
2018-07-27T18:56:48.079Z,93966.22
2018-07-27T18:59:17.286Z,93975.93
2018-07-27T19:01:46.502Z,93974.05
2018-07-27T19:04:15.888Z,93980.08
2018-07-27T19:06:44.975Z,93974.77
2018-07-27T19:09:15.769Z,93985.67
2018-07-27T19:11:45.850Z,93988.86
2018-07-27T19:14:15.044Z,93982.38
2018-07-27T19:16:44.333Z,93987.81
2018-07-27T19:19:13.412Z,93987.41
2018-07-27T19:21:42.637Z,93981.88
2018-07-27T19:24:11.749Z,93980.94
2018-07-27T19:26:40.850Z,93979.86
2018-07-27T19:29:09.966Z,93974.43
2018-07-27T19:31:39.115Z,93971.47
2018-07-27T19:34:08.161Z,93963.11
2018-07-27T19:36:37.372Z,93959.92
2018-07-27T19:39:08.984Z,93948.34
2018-07-27T19:41:38.092Z,93946.30
2018-07-27T19:44:07.304Z,93941.51
2018-07-27T19:46:36.503Z,93945.44
2018-07-27T19:49:06.009Z,93937.11
2018-07-27T19:51:35.070Z,93945.52
2018-07-27T19:54:04.389Z,93942.94
2018-07-27T19:56:33.606Z,93938.75
2018-07-27T19:59:02.742Z,93941.71
2018-07-27T20:01:31.908Z,93936.91
2018-07-27T20:04:01.011Z,93939.34
2018-07-27T20:06:31.124Z,93938.03
2018-07-27T20:09:00.207Z,93932.97
2018-07-27T20:11:29.347Z,93930.68
2018-07-27T20:13:58.500Z,93936.49
2018-07-27T20:16:29.413Z,93934.52
2018-07-27T20:18:58.553Z,93933.07
2018-07-27T20:21:27.774Z,93927.29
2018-07-27T20:23:56.849Z,93926.48
2018-07-27T20:26:26.515Z,93926.48
2018-07-27T20:28:55.624Z,93922.11
2018-07-27T20:31:24.634Z,93925.28
2018-07-27T20:33:53.841Z,93922.61
2018-07-27T20:36:23.096Z,93924.70
2018-07-27T20:38:52.267Z,93923.44
2018-07-27T20:41:21.614Z,93930.48
2018-07-27T20:43:50.767Z,93935.02
2018-07-27T20:46:20.844Z,93935.56
2018-07-27T20:48:49.940Z,93933.20
2018-07-27T20:51:19.270Z,93933.70
2018-07-27T20:53:48.553Z,93943.56
2018-07-27T20:56:17.834Z,93945.92
2018-07-27T20:58:47.019Z,93949.95
2018-07-27T21:01:16.476Z,93950.46
2018-07-27T21:03:45.657Z,93948.62
2018-07-27T21:06:14.956Z,93945.48
2018-07-27T21:08:44.095Z,93949.17
2018-07-27T21:11:13.885Z,93955.55
2018-07-27T21:13:43.390Z,93948.45
2018-07-27T21:16:12.742Z,93946.36
2018-07-27T21:18:42.211Z,93951.09
2018-07-27T21:21:11.569Z,93945.58
2018-07-27T21:23:40.763Z,93947.93
2018-07-27T21:26:09.954Z,93949.53
2018-07-27T21:28:39.366Z,93954.79
2018-07-27T21:31:08.684Z,93953.02
2018-07-27T21:33:38.079Z,93965.39
2018-07-27T21:36:11.273Z,93967.75
2018-07-27T21:38:40.842Z,93970.13
2018-07-27T21:41:10.369Z,93976.69
2018-07-27T21:43:40.148Z,93972.75
2018-07-27T21:46:10.991Z,93976.42
2018-07-27T21:48:40.349Z,93970.64
2018-07-27T21:51:09.712Z,93975.38
2018-07-27T21:53:38.846Z,93976.42
2018-07-27T21:56:08.208Z,93969.11
2018-07-27T21:58:37.698Z,93972.27
2018-07-27T22:01:07.128Z,93975.64
2018-07-27T22:03:36.544Z,93968.28
2018-07-27T22:06:06.255Z,93961.00
2018-07-27T22:08:35.775Z,93955.48
2018-07-27T22:11:05.023Z,93964.15
2018-07-27T22:13:34.422Z,93962.28
2018-07-27T22:16:03.966Z,93954.14
2018-07-27T22:18:33.324Z,93955.19
2018-07-27T22:21:02.739Z,93955.72
2018-07-27T22:23:32.153Z,93957.84
2018-07-27T22:26:01.484Z,93952.06
2018-07-27T22:28:30.968Z,93943.14
2018-07-27T22:31:00.306Z,93942.64
2018-07-27T22:33:29.563Z,93939.22
2018-07-27T22:35:59.085Z,93938.94
2018-07-27T22:38:28.497Z,93936.86
2018-07-27T22:40:58.006Z,93932.16
2018-07-27T22:43:27.388Z,93943.95
2018-07-27T22:45:56.924Z,93947.09
2018-07-27T22:48:26.335Z,93942.90
2018-07-27T22:50:55.786Z,93930.03
2018-07-27T22:53:25.183Z,93924.52
2018-07-27T22:55:54.436Z,93923.73
2018-07-27T22:58:24.536Z,93930.05
2018-07-27T23:00:53.966Z,93933.45
2018-07-27T23:03:23.414Z,93922.69
2018-07-27T23:05:52.770Z,93923.50
2018-07-27T23:08:22.277Z,93915.87
2018-07-27T23:10:51.593Z,93923.50
2018-07-27T23:13:20.934Z,93918.23
2018-07-27T23:15:50.358Z,93913.75
2018-07-27T23:18:19.871Z,93913.73
2018-07-27T23:20:49.315Z,93913.47
2018-07-27T23:23:18.602Z,93916.09
2018-07-27T23:25:48.099Z,93909.02
2018-07-27T23:28:17.444Z,93917.95
2018-07-27T23:30:46.722Z,93917.17
2018-07-27T23:33:16.253Z,93921.88
2018-07-27T23:35:45.688Z,93917.92
2018-07-27T23:38:15.662Z,93917.14
2018-07-27T23:40:45.181Z,93919.00
2018-07-27T23:43:14.414Z,93918.20
2018-07-27T23:45:44.394Z,93920.30
2018-07-27T23:48:13.791Z,93916.89
2018-07-27T23:50:43.151Z,93910.59
2018-07-27T23:53:12.616Z,93906.66
2018-07-27T23:55:42.247Z,93901.11
2018-07-27T23:58:11.755Z,93904.02
